sensor_id;sensor_type;location;lat;lon;timestamp;temperature;humidity
24374;DHT22;12498;50.880;12.096;2022-08-30T00:00:57;15.20;99.90
24374;DHT22;12498;50.880;12.096;2022-08-30T00:03:38;15.20;99.90
24374;DHT22;12498;50.880;12.096;2022-08-30T00:06:05;15.20;99.90
24374;DHT22;12498;50.880;12.096;2022-08-30T00:08:32;15.10;99.90
24374;DHT22;12498;50.880;12.096;2022-08-30T00:10:58;15.10;99.90
24374;DHT22;12498;50.880;12.096;2022-08-30T00:13:24;15.10;99.90
24374;DHT22;12498;50.880;12.096;2022-08-30T00:15:50;15.00;99.90
24374;DHT22;12498;50.880;12.096;2022-08-30T00:18:16;15.00;99.90
24374;DHT22;12498;50.880;12.096;2022-08-30T00:20:44;15.10;99.90
24374;DHT22;12498;50.880;12.096;2022-08-30T00:23:11;15.00;99.90
24374;DHT22;12498;50.880;12.096;2022-08-30T00:25:37;15.00;99.90
24374;DHT22;12498;50.880;12.096;2022-08-30T00:28:03;15.00;99.90
24374;DHT22;12498;50.880;12.096;2022-08-30T00:30:29;14.90;99.90
24374;DHT22;12498;50.880;12.096;2022-08-30T00:32:55;14.90;99.90
24374;DHT22;12498;50.880;12.096;2022-08-30T00:35:21;14.90;99.90
24374;DHT22;12498;50.880;12.096;2022-08-30T00:37:47;14.90;99.90
24374;DHT22;12498;50.880;12.096;2022-08-30T00:40:13;14.80;99.90
24374;DHT22;12498;50.880;12.096;2022-08-30T00:42:41;14.80;99.90
24374;DHT22;12498;50.880;12.096;2022-08-30T00:45:17;14.80;99.90
24374;DHT22;12498;50.880;12.096;2022-08-30T00:47:44;14.70;99.90
24374;DHT22;12498;50.880;12.096;2022-08-30T00:50:14;14.70;99.90
24374;DHT22;12498;50.880;12.096;2022-08-30T00:52:43;14.70;99.90
24374;DHT22;12498;50.880;12.096;2022-08-30T00:55:10;14.70;99.90
24374;DHT22;12498;50.880;12.096;2022-08-30T00:57:39;14.70;99.90
24374;DHT22;12498;50.880;12.096;2022-08-30T01:00:06;14.60;99.90
24374;DHT22;12498;50.880;12.096;2022-08-30T01:02:33;14.60;99.90
24374;DHT22;12498;50.880;12.096;2022-08-30T01:05:00;14.60;99.90
24374;DHT22;12498;50.880;12.096;2022-08-30T01:07:26;14.60;99.90
24374;DHT22;12498;50.880;12.096;2022-08-30T01:09:52;14.60;99.90
24374;DHT22;12498;50.880;12.096;2022-08-30T01:12:18;14.60;99.90
24374;DHT22;12498;50.880;12.096;2022-08-30T01:14:44;14.50;99.90
24374;DHT22;12498;50.880;12.096;2022-08-30T01:17:10;14.50;99.90
24374;DHT22;12498;50.880;12.096;2022-08-30T01:20:02;14.60;99.90
24374;DHT22;12498;50.880;12.096;2022-08-30T01:22:55;14.50;99.90
24374;DHT22;12498;50.880;12.096;2022-08-30T01:25:24;14.50;99.90
24374;DHT22;12498;50.880;12.096;2022-08-30T01:28:02;14.50;99.90
24374;DHT22;12498;50.880;12.096;2022-08-30T01:30:30;14.50;99.90
24374;DHT22;12498;50.880;12.096;2022-08-30T01:32:59;14.50;99.90
24374;DHT22;12498;50.880;12.096;2022-08-30T01:35:25;14.40;99.90
24374;DHT22;12498;50.880;12.096;2022-08-30T01:37:51;14.30;99.90
24374;DHT22;12498;50.880;12.096;2022-08-30T01:40:17;14.40;99.90
24374;DHT22;12498;50.880;12.096;2022-08-30T01:42:44;14.40;99.90
24374;DHT22;12498;50.880;12.096;2022-08-30T01:45:11;14.40;99.90
24374;DHT22;12498;50.880;12.096;2022-08-30T01:47:38;14.40;99.90
24374;DHT22;12498;50.880;12.096;2022-08-30T01:50:05;14.40;99.90
24374;DHT22;12498;50.880;12.096;2022-08-30T01:52:31;14.40;99.90
24374;DHT22;12498;50.880;12.096;2022-08-30T01:54:57;14.40;99.90
24374;DHT22;12498;50.880;12.096;2022-08-30T01:57:23;14.40;99.90
24374;DHT22;12498;50.880;12.096;2022-08-30T01:59:51;14.30;99.90
24374;DHT22;12498;50.880;12.096;2022-08-30T02:02:21;14.20;99.90
24374;DHT22;12498;50.880;12.096;2022-08-30T02:04:48;14.20;99.90
24374;DHT22;12498;50.880;12.096;2022-08-30T02:07:15;14.30;99.90
24374;DHT22;12498;50.880;12.096;2022-08-30T02:09:41;14.20;99.90
24374;DHT22;12498;50.880;12.096;2022-08-30T02:12:07;14.20;99.90
24374;DHT22;12498;50.880;12.096;2022-08-30T02:14:34;14.20;99.90
24374;DHT22;12498;50.880;12.096;2022-08-30T02:17:00;14.10;99.90
24374;DHT22;12498;50.880;12.096;2022-08-30T02:19:27;14.10;99.90
24374;DHT22;12498;50.880;12.096;2022-08-30T02:21:52;14.10;99.90
24374;DHT22;12498;50.880;12.096;2022-08-30T02:24:18;14.10;99.90
24374;DHT22;12498;50.880;12.096;2022-08-30T02:26:44;14.10;99.90
24374;DHT22;12498;50.880;12.096;2022-08-30T02:29:09;14.20;99.90
24374;DHT22;12498;50.880;12.096;2022-08-30T02:31:35;14.10;99.90
24374;DHT22;12498;50.880;12.096;2022-08-30T02:34:01;14.20;99.90
24374;DHT22;12498;50.880;12.096;2022-08-30T02:36:26;14.10;99.90
24374;DHT22;12498;50.880;12.096;2022-08-30T02:38:52;14.10;99.90
24374;DHT22;12498;50.880;12.096;2022-08-30T02:41:19;14.10;99.90
24374;DHT22;12498;50.880;12.096;2022-08-30T02:43:45;14.00;99.90
24374;DHT22;12498;50.880;12.096;2022-08-30T02:46:11;14.10;99.90
24374;DHT22;12498;50.880;12.096;2022-08-30T02:48:37;14.00;99.90
24374;DHT22;12498;50.880;12.096;2022-08-30T02:51:08;14.00;99.90
24374;DHT22;12498;50.880;12.096;2022-08-30T02:53:35;14.00;99.90
24374;DHT22;12498;50.880;12.096;2022-08-30T02:56:00;13.90;99.90
24374;DHT22;12498;50.880;12.096;2022-08-30T02:58:26;13.90;99.90
24374;DHT22;12498;50.880;12.096;2022-08-30T03:00:52;13.80;99.90
24374;DHT22;12498;50.880;12.096;2022-08-30T03:03:17;13.70;99.90
24374;DHT22;12498;50.880;12.096;2022-08-30T03:05:43;13.60;99.90
24374;DHT22;12498;50.880;12.096;2022-08-30T03:08:09;13.60;99.90
24374;DHT22;12498;50.880;12.096;2022-08-30T03:10:35;13.50;99.90
24374;DHT22;12498;50.880;12.096;2022-08-30T03:13:01;13.50;99.90
24374;DHT22;12498;50.880;12.096;2022-08-30T03:15:27;13.50;99.90
24374;DHT22;12498;50.880;12.096;2022-08-30T03:17:54;13.40;99.90
24374;DHT22;12498;50.880;12.096;2022-08-30T03:20:21;13.50;99.90
24374;DHT22;12498;50.880;12.096;2022-08-30T03:22:47;13.50;99.90
24374;DHT22;12498;50.880;12.096;2022-08-30T03:25:13;13.50;99.90
24374;DHT22;12498;50.880;12.096;2022-08-30T03:27:39;13.60;99.90
24374;DHT22;12498;50.880;12.096;2022-08-30T03:30:06;13.50;99.90
24374;DHT22;12498;50.880;12.096;2022-08-30T03:32:32;13.50;99.90
24374;DHT22;12498;50.880;12.096;2022-08-30T03:34:58;13.50;99.90
24374;DHT22;12498;50.880;12.096;2022-08-30T03:37:24;13.60;99.90
24374;DHT22;12498;50.880;12.096;2022-08-30T03:39:50;13.60;99.90
24374;DHT22;12498;50.880;12.096;2022-08-30T03:42:15;13.50;99.90
24374;DHT22;12498;50.880;12.096;2022-08-30T03:44:41;13.50;99.90
24374;DHT22;12498;50.880;12.096;2022-08-30T03:47:07;13.40;99.90
24374;DHT22;12498;50.880;12.096;2022-08-30T03:49:32;13.40;99.90
24374;DHT22;12498;50.880;12.096;2022-08-30T03:51:58;13.40;99.90
24374;DHT22;12498;50.880;12.096;2022-08-30T03:54:24;13.40;99.90
24374;DHT22;12498;50.880;12.096;2022-08-30T03:56:50;13.50;99.90
24374;DHT22;12498;50.880;12.096;2022-08-30T03:59:15;13.50;99.90
24374;DHT22;12498;50.880;12.096;2022-08-30T04:01:41;13.50;99.90
24374;DHT22;12498;50.880;12.096;2022-08-30T04:04:07;13.50;99.90
24374;DHT22;12498;50.880;12.096;2022-08-30T04:06:33;13.40;99.90
24374;DHT22;12498;50.880;12.096;2022-08-30T04:08:59;13.40;99.90
24374;DHT22;12498;50.880;12.096;2022-08-30T04:11:24;13.50;99.90
24374;DHT22;12498;50.880;12.096;2022-08-30T04:13:50;13.40;99.90
24374;DHT22;12498;50.880;12.096;2022-08-30T04:16:18;13.40;99.90
24374;DHT22;12498;50.880;12.096;2022-08-30T04:18:44;13.50;99.90
24374;DHT22;12498;50.880;12.096;2022-08-30T04:21:10;13.40;99.90
24374;DHT22;12498;50.880;12.096;2022-08-30T04:23:35;13.50;99.90
24374;DHT22;12498;50.880;12.096;2022-08-30T04:26:01;13.40;99.90
24374;DHT22;12498;50.880;12.096;2022-08-30T04:28:26;13.40;99.90
24374;DHT22;12498;50.880;12.096;2022-08-30T04:30:52;13.50;99.90
24374;DHT22;12498;50.880;12.096;2022-08-30T04:33:18;14.00;99.90
24374;DHT22;12498;50.880;12.096;2022-08-30T04:35:46;14.10;99.90
24374;DHT22;12498;50.880;12.096;2022-08-30T04:38:12;14.30;99.90
24374;DHT22;12498;50.880;12.096;2022-08-30T04:40:41;14.40;99.90
24374;DHT22;12498;50.880;12.096;2022-08-30T04:43:07;14.50;99.90
24374;DHT22;12498;50.880;12.096;2022-08-30T04:45:33;14.70;99.90
24374;DHT22;12498;50.880;12.096;2022-08-30T04:47:58;14.60;99.90
24374;DHT22;12498;50.880;12.096;2022-08-30T04:50:24;14.60;99.90
24374;DHT22;12498;50.880;12.096;2022-08-30T04:52:50;14.70;99.90
24374;DHT22;12498;50.880;12.096;2022-08-30T04:55:16;14.70;99.90
24374;DHT22;12498;50.880;12.096;2022-08-30T04:57:42;14.70;99.90
24374;DHT22;12498;50.880;12.096;2022-08-30T05:00:10;14.80;99.90
24374;DHT22;12498;50.880;12.096;2022-08-30T05:02:38;14.80;99.90
24374;DHT22;12498;50.880;12.096;2022-08-30T05:05:05;14.70;99.90
24374;DHT22;12498;50.880;12.096;2022-08-30T05:07:49;14.70;99.90
24374;DHT22;12498;50.880;12.096;2022-08-30T05:10:15;14.50;99.90
24374;DHT22;12498;50.880;12.096;2022-08-30T05:12:40;14.30;99.90
24374;DHT22;12498;50.880;12.096;2022-08-30T05:15:08;14.10;99.90
24374;DHT22;12498;50.880;12.096;2022-08-30T05:17:37;14.00;99.90
24374;DHT22;12498;50.880;12.096;2022-08-30T05:20:04;13.90;99.90
24374;DHT22;12498;50.880;12.096;2022-08-30T05:22:30;13.90;99.90
24374;DHT22;12498;50.880;12.096;2022-08-30T05:24:55;13.90;99.90
24374;DHT22;12498;50.880;12.096;2022-08-30T05:27:21;13.90;99.90
24374;DHT22;12498;50.880;12.096;2022-08-30T05:29:47;13.90;99.90
24374;DHT22;12498;50.880;12.096;2022-08-30T05:32:12;13.90;99.90
24374;DHT22;12498;50.880;12.096;2022-08-30T05:34:38;14.00;99.90
24374;DHT22;12498;50.880;12.096;2022-08-30T05:37:03;13.90;99.90
24374;DHT22;12498;50.880;12.096;2022-08-30T05:39:29;13.90;99.90
24374;DHT22;12498;50.880;12.096;2022-08-30T05:41:56;14.00;99.90
24374;DHT22;12498;50.880;12.096;2022-08-30T05:44:22;14.00;99.90
24374;DHT22;12498;50.880;12.096;2022-08-30T05:46:47;14.00;99.90
24374;DHT22;12498;50.880;12.096;2022-08-30T05:49:13;14.00;99.90
24374;DHT22;12498;50.880;12.096;2022-08-30T05:51:40;14.10;99.90
24374;DHT22;12498;50.880;12.096;2022-08-30T05:54:06;14.20;99.90
24374;DHT22;12498;50.880;12.096;2022-08-30T05:56:35;14.30;99.90
24374;DHT22;12498;50.880;12.096;2022-08-30T05:59:03;14.30;99.90
24374;DHT22;12498;50.880;12.096;2022-08-30T06:01:30;14.40;99.90
24374;DHT22;12498;50.880;12.096;2022-08-30T06:03:58;14.40;99.90
24374;DHT22;12498;50.880;12.096;2022-08-30T06:06:25;14.30;99.90
24374;DHT22;12498;50.880;12.096;2022-08-30T06:08:51;14.40;99.90
24374;DHT22;12498;50.880;12.096;2022-08-30T06:11:19;14.50;99.90
24374;DHT22;12498;50.880;12.096;2022-08-30T06:13:48;14.60;99.90
24374;DHT22;12498;50.880;12.096;2022-08-30T06:16:16;14.60;99.90
24374;DHT22;12498;50.880;12.096;2022-08-30T06:18:42;14.80;99.90
24374;DHT22;12498;50.880;12.096;2022-08-30T06:23:42;15.00;99.90
24374;DHT22;12498;50.880;12.096;2022-08-30T06:26:09;15.00;99.90
24374;DHT22;12498;50.880;12.096;2022-08-30T06:28:35;15.10;99.90
24374;DHT22;12498;50.880;12.096;2022-08-30T06:31:04;15.00;99.90
24374;DHT22;12498;50.880;12.096;2022-08-30T06:33:29;15.00;99.90
24374;DHT22;12498;50.880;12.096;2022-08-30T06:36:01;15.00;99.90
24374;DHT22;12498;50.880;12.096;2022-08-30T06:38:27;15.00;99.90
24374;DHT22;12498;50.880;12.096;2022-08-30T06:40:52;15.00;99.90
24374;DHT22;12498;50.880;12.096;2022-08-30T06:43:18;15.10;99.90
24374;DHT22;12498;50.880;12.096;2022-08-30T06:45:43;15.10;99.90
24374;DHT22;12498;50.880;12.096;2022-08-30T06:48:09;15.20;99.90
24374;DHT22;12498;50.880;12.096;2022-08-30T06:50:34;15.30;99.90
24374;DHT22;12498;50.880;12.096;2022-08-30T06:53:00;15.40;99.90
24374;DHT22;12498;50.880;12.096;2022-08-30T06:55:30;15.50;99.90
24374;DHT22;12498;50.880;12.096;2022-08-30T06:57:58;15.50;99.90
24374;DHT22;12498;50.880;12.096;2022-08-30T07:00:24;15.60;99.90
24374;DHT22;12498;50.880;12.096;2022-08-30T07:02:50;15.60;99.90
24374;DHT22;12498;50.880;12.096;2022-08-30T07:05:16;15.60;99.90
24374;DHT22;12498;50.880;12.096;2022-08-30T07:07:42;15.70;99.90
24374;DHT22;12498;50.880;12.096;2022-08-30T07:10:08;15.70;99.90
24374;DHT22;12498;50.880;12.096;2022-08-30T07:12:35;15.70;99.90
24374;DHT22;12498;50.880;12.096;2022-08-30T07:15:03;15.70;99.90
24374;DHT22;12498;50.880;12.096;2022-08-30T07:17:29;15.80;99.90
24374;DHT22;12498;50.880;12.096;2022-08-30T07:20:13;15.80;99.90
24374;DHT22;12498;50.880;12.096;2022-08-30T07:22:40;15.90;99.90
24374;DHT22;12498;50.880;12.096;2022-08-30T07:25:06;15.90;99.90
24374;DHT22;12498;50.880;12.096;2022-08-30T07:27:37;16.00;99.90
24374;DHT22;12498;50.880;12.096;2022-08-30T07:30:06;16.10;99.90
24374;DHT22;12498;50.880;12.096;2022-08-30T07:32:32;16.20;99.90
24374;DHT22;12498;50.880;12.096;2022-08-30T07:34:57;16.20;99.90
24374;DHT22;12498;50.880;12.096;2022-08-30T07:37:23;16.30;99.90
24374;DHT22;12498;50.880;12.096;2022-08-30T07:39:49;16.40;99.90
24374;DHT22;12498;50.880;12.096;2022-08-30T07:42:15;16.50;99.90
24374;DHT22;12498;50.880;12.096;2022-08-30T07:44:41;16.70;99.90
24374;DHT22;12498;50.880;12.096;2022-08-30T07:47:06;16.70;99.90
24374;DHT22;12498;50.880;12.096;2022-08-30T07:49:32;16.70;99.90
24374;DHT22;12498;50.880;12.096;2022-08-30T07:51:58;16.90;99.90
24374;DHT22;12498;50.880;12.096;2022-08-30T07:54:23;17.00;99.90
24374;DHT22;12498;50.880;12.096;2022-08-30T07:56:49;17.00;99.90
24374;DHT22;12498;50.880;12.096;2022-08-30T07:59:15;17.10;99.90
24374;DHT22;12498;50.880;12.096;2022-08-30T08:01:40;17.10;99.90
24374;DHT22;12498;50.880;12.096;2022-08-30T08:04:07;17.20;99.90
24374;DHT22;12498;50.880;12.096;2022-08-30T08:06:41;17.30;99.90
24374;DHT22;12498;50.880;12.096;2022-08-30T08:09:08;17.40;99.90
24374;DHT22;12498;50.880;12.096;2022-08-30T08:11:33;17.50;99.90
24374;DHT22;12498;50.880;12.096;2022-08-30T08:14:00;17.50;99.90
24374;DHT22;12498;50.880;12.096;2022-08-30T08:16:29;17.60;99.90
24374;DHT22;12498;50.880;12.096;2022-08-30T08:18:55;17.70;99.90
24374;DHT22;12498;50.880;12.096;2022-08-30T08:21:22;17.80;99.90
24374;DHT22;12498;50.880;12.096;2022-08-30T08:23:48;17.90;99.90
24374;DHT22;12498;50.880;12.096;2022-08-30T08:26:13;18.00;99.90
24374;DHT22;12498;50.880;12.096;2022-08-30T08:28:39;18.10;99.90
24374;DHT22;12498;50.880;12.096;2022-08-30T08:31:20;18.10;99.90
24374;DHT22;12498;50.880;12.096;2022-08-30T08:33:46;18.10;99.90
24374;DHT22;12498;50.880;12.096;2022-08-30T08:36:12;18.30;99.90
24374;DHT22;12498;50.880;12.096;2022-08-30T08:38:38;18.30;99.90
24374;DHT22;12498;50.880;12.096;2022-08-30T08:41:11;18.50;99.90
24374;DHT22;12498;50.880;12.096;2022-08-30T08:43:39;18.50;99.90
24374;DHT22;12498;50.880;12.096;2022-08-30T08:47:17;18.60;97.50
24374;DHT22;12498;50.880;12.096;2022-08-30T08:49:23;18.70;96.80
24374;DHT22;12498;50.880;12.096;2022-08-30T08:51:48;18.70;96.40
24374;DHT22;12498;50.880;12.096;2022-08-30T08:54:51;18.90;93.70
24374;DHT22;12498;50.880;12.096;2022-08-30T08:57:20;19.00;91.90
24374;DHT22;12498;50.880;12.096;2022-08-30T08:59:46;19.10;89.60
24374;DHT22;12498;50.880;12.096;2022-08-30T09:02:23;19.10;87.00
24374;DHT22;12498;50.880;12.096;2022-08-30T09:04:50;19.20;88.10
24374;DHT22;12498;50.880;12.096;2022-08-30T09:07:25;19.20;87.00
24374;DHT22;12498;50.880;12.096;2022-08-30T09:09:51;19.30;82.30
24374;DHT22;12498;50.880;12.096;2022-08-30T09:12:17;19.40;81.00
24374;DHT22;12498;50.880;12.096;2022-08-30T09:14:50;19.50;77.60
24374;DHT22;12498;50.880;12.096;2022-08-30T09:17:17;19.60;74.40
24374;DHT22;12498;50.880;12.096;2022-08-30T09:19:45;19.70;70.30
24374;DHT22;12498;50.880;12.096;2022-08-30T09:27:38;19.90;56.10
24374;DHT22;12498;50.880;12.096;2022-08-30T09:30:24;20.00;56.60
24374;DHT22;12498;50.880;12.096;2022-08-30T09:35:31;20.30;48.40
24374;DHT22;12498;50.880;12.096;2022-08-30T09:38:21;20.50;48.20
24374;DHT22;12498;50.880;12.096;2022-08-30T09:40:56;20.60;45.70
24374;DHT22;12498;50.880;12.096;2022-08-30T09:43:25;20.70;40.30
24374;DHT22;12498;50.880;12.096;2022-08-30T09:59:14;22.60;48.80
24374;DHT22;12498;50.880;12.096;2022-08-30T10:02:00;23.90;99.90
24374;DHT22;12498;50.880;12.096;2022-08-30T10:04:47;25.00;99.90
24374;DHT22;12498;50.880;12.096;2022-08-30T10:07:29;25.90;99.90
24374;DHT22;12498;50.880;12.096;2022-08-30T10:10:04;26.90;99.90
24374;DHT22;12498;50.880;12.096;2022-08-30T10:21:10;28.40;93.00
24374;DHT22;12498;50.880;12.096;2022-08-30T10:23:49;29.10;90.40
24374;DHT22;12498;50.880;12.096;2022-08-30T10:29:00;30.10;84.40
24374;DHT22;12498;50.880;12.096;2022-08-30T10:37:16;30.40;74.50
24374;DHT22;12498;50.880;12.096;2022-08-30T10:39:49;30.60;72.50
24374;DHT22;12498;50.880;12.096;2022-08-30T10:42:24;31.10;69.20
24374;DHT22;12498;50.880;12.096;2022-08-30T10:45:29;32.20;66.10
24374;DHT22;12498;50.880;12.096;2022-08-30T10:48:19;33.80;61.60
24374;DHT22;12498;50.880;12.096;2022-08-30T10:50:51;34.40;55.20
24374;DHT22;12498;50.880;12.096;2022-08-30T10:53:23;33.80;54.90
24374;DHT22;12498;50.880;12.096;2022-08-30T10:56:02;34.50;55.00
24374;DHT22;12498;50.880;12.096;2022-08-30T10:58:29;36.30;52.20
24374;DHT22;12498;50.880;12.096;2022-08-30T11:01:21;36.50;48.30
24374;DHT22;12498;50.880;12.096;2022-08-30T11:09:15;37.30;46.60
24374;DHT22;12498;50.880;12.096;2022-08-30T11:14:42;35.60;46.40
24374;DHT22;12498;50.880;12.096;2022-08-30T11:17:30;34.80;46.40
24374;DHT22;12498;50.880;12.096;2022-08-30T11:19:59;32.60;50.00
24374;DHT22;12498;50.880;12.096;2022-08-30T11:22:32;31.10;52.90
24374;DHT22;12498;50.880;12.096;2022-08-30T11:25:13;31.60;53.80
24374;DHT22;12498;50.880;12.096;2022-08-30T11:33:40;34.60;47.50
24374;DHT22;12498;50.880;12.096;2022-08-30T11:36:07;35.20;46.80
24374;DHT22;12498;50.880;12.096;2022-08-30T11:46:16;37.30;42.20
24374;DHT22;12498;50.880;12.096;2022-08-30T11:57:47;38.50;40.10
24374;DHT22;12498;50.880;12.096;2022-08-30T12:00:34;37.90;40.80
24374;DHT22;12498;50.880;12.096;2022-08-30T12:03:05;37.40;41.90
24374;DHT22;12498;50.880;12.096;2022-08-30T12:10:53;31.60;48.20
24374;DHT22;12498;50.880;12.096;2022-08-30T12:21:26;30.10;53.90
24374;DHT22;12498;50.880;12.096;2022-08-30T12:24:15;32.50;49.70
24374;DHT22;12498;50.880;12.096;2022-08-30T12:26:45;33.10;47.60
24374;DHT22;12498;50.880;12.096;2022-08-30T12:29:23;32.80;48.70
24374;DHT22;12498;50.880;12.096;2022-08-30T12:37:37;35.70;44.00
24374;DHT22;12498;50.880;12.096;2022-08-30T12:39:44;34.70;44.30
24374;DHT22;12498;50.880;12.096;2022-08-30T12:42:20;33.60;46.10
24374;DHT22;12498;50.880;12.096;2022-08-30T12:44:48;32.20;48.60
24374;DHT22;12498;50.880;12.096;2022-08-30T12:47:21;30.90;50.90
24374;DHT22;12498;50.880;12.096;2022-08-30T12:49:50;30.80;51.40
24374;DHT22;12498;50.880;12.096;2022-08-30T12:54:50;30.60;50.90
24374;DHT22;12498;50.880;12.096;2022-08-30T12:57:40;30.10;51.30
24374;DHT22;12498;50.880;12.096;2022-08-30T13:00:09;29.50;52.10
24374;DHT22;12498;50.880;12.096;2022-08-30T13:05:29;28.30;53.70
24374;DHT22;12498;50.880;12.096;2022-08-30T13:08:30;27.80;55.70
24374;DHT22;12498;50.880;12.096;2022-08-30T13:11:06;27.40;56.40
24374;DHT22;12498;50.880;12.096;2022-08-30T13:13:43;29.50;54.30
24374;DHT22;12498;50.880;12.096;2022-08-30T13:18:51;33.00;47.90
24374;DHT22;12498;50.880;12.096;2022-08-30T13:21:33;33.80;46.60
24374;DHT22;12498;50.880;12.096;2022-08-30T13:24:04;35.20;44.80
24374;DHT22;12498;50.880;12.096;2022-08-30T13:26:33;35.90;42.90
24374;DHT22;12498;50.880;12.096;2022-08-30T13:29:02;36.90;42.40
24374;DHT22;12498;50.880;12.096;2022-08-30T13:31:29;37.80;41.30
24374;DHT22;12498;50.880;12.096;2022-08-30T13:33:55;38.10;40.60
24374;DHT22;12498;50.880;12.096;2022-08-30T13:36:30;37.10;41.30
24374;DHT22;12498;50.880;12.096;2022-08-30T13:38:58;36.00;42.80
24374;DHT22;12498;50.880;12.096;2022-08-30T13:41:25;36.20;42.30
24374;DHT22;12498;50.880;12.096;2022-08-30T13:43:51;34.50;44.00
24374;DHT22;12498;50.880;12.096;2022-08-30T13:46:17;32.60;46.60
24374;DHT22;12498;50.880;12.096;2022-08-30T13:48:44;31.20;49.30
24374;DHT22;12498;50.880;12.096;2022-08-30T13:51:09;30.40;49.70
24374;DHT22;12498;50.880;12.096;2022-08-30T13:53:35;29.40;51.70
24374;DHT22;12498;50.880;12.096;2022-08-30T13:56:03;29.20;52.90
24374;DHT22;12498;50.880;12.096;2022-08-30T13:58:29;29.90;51.90
24374;DHT22;12498;50.880;12.096;2022-08-30T14:00:55;30.20;51.30
24374;DHT22;12498;50.880;12.096;2022-08-30T14:03:20;29.70;51.00
24374;DHT22;12498;50.880;12.096;2022-08-30T14:05:47;28.60;52.50
24374;DHT22;12498;50.880;12.096;2022-08-30T14:08:15;27.40;54.70
24374;DHT22;12498;50.880;12.096;2022-08-30T14:10:41;27.00;55.70
24374;DHT22;12498;50.880;12.096;2022-08-30T14:13:06;26.30;57.40
24374;DHT22;12498;50.880;12.096;2022-08-30T14:15:38;26.10;58.80
24374;DHT22;12498;50.880;12.096;2022-08-30T14:18:05;25.90;59.70
24374;DHT22;12498;50.880;12.096;2022-08-30T14:20:31;25.90;59.60
24374;DHT22;12498;50.880;12.096;2022-08-30T14:22:56;25.70;60.10
24374;DHT22;12498;50.880;12.096;2022-08-30T14:25:22;26.70;59.10
24374;DHT22;12498;50.880;12.096;2022-08-30T14:27:48;28.30;57.50
24374;DHT22;12498;50.880;12.096;2022-08-30T14:30:13;29.30;55.60
24374;DHT22;12498;50.880;12.096;2022-08-30T14:32:39;29.60;54.40
24374;DHT22;12498;50.880;12.096;2022-08-30T14:35:05;29.60;54.40
24374;DHT22;12498;50.880;12.096;2022-08-30T14:37:31;29.70;54.50
24374;DHT22;12498;50.880;12.096;2022-08-30T14:39:57;30.30;53.30
24374;DHT22;12498;50.880;12.096;2022-08-30T14:42:22;30.60;53.20
24374;DHT22;12498;50.880;12.096;2022-08-30T14:44:48;30.40;53.40
24374;DHT22;12498;50.880;12.096;2022-08-30T14:47:13;29.90;53.60
24374;DHT22;12498;50.880;12.096;2022-08-30T14:49:39;29.70;54.50
24374;DHT22;12498;50.880;12.096;2022-08-30T14:52:05;28.80;55.50
24374;DHT22;12498;50.880;12.096;2022-08-30T14:54:31;28.40;56.60
24374;DHT22;12498;50.880;12.096;2022-08-30T14:56:58;27.60;57.70
24374;DHT22;12498;50.880;12.096;2022-08-30T14:59:24;26.60;59.60
24374;DHT22;12498;50.880;12.096;2022-08-30T15:01:50;26.50;60.80
24374;DHT22;12498;50.880;12.096;2022-08-30T15:04:16;26.10;61.50
24374;DHT22;12498;50.880;12.096;2022-08-30T15:06:45;25.60;62.80
24374;DHT22;12498;50.880;12.096;2022-08-30T15:09:13;25.10;64.10
24374;DHT22;12498;50.880;12.096;2022-08-30T15:11:39;25.00;65.70
24374;DHT22;12498;50.880;12.096;2022-08-30T15:14:05;24.80;66.30
24374;DHT22;12498;50.880;12.096;2022-08-30T15:16:33;24.50;67.00
24374;DHT22;12498;50.880;12.096;2022-08-30T15:19:00;24.30;68.40
24374;DHT22;12498;50.880;12.096;2022-08-30T15:21:31;24.40;69.00
24374;DHT22;12498;50.880;12.096;2022-08-30T15:23:58;24.60;69.00
24374;DHT22;12498;50.880;12.096;2022-08-30T15:26:25;24.90;68.30
24374;DHT22;12498;50.880;12.096;2022-08-30T15:28:51;25.20;67.90
24374;DHT22;12498;50.880;12.096;2022-08-30T15:31:23;25.60;67.10
24374;DHT22;12498;50.880;12.096;2022-08-30T15:33:48;25.60;66.30
24374;DHT22;12498;50.880;12.096;2022-08-30T15:36:14;25.60;66.10
24374;DHT22;12498;50.880;12.096;2022-08-30T15:38:40;25.70;66.40
24374;DHT22;12498;50.880;12.096;2022-08-30T15:41:09;25.90;67.70
24374;DHT22;12498;50.880;12.096;2022-08-30T15:43:35;25.90;66.40
24374;DHT22;12498;50.880;12.096;2022-08-30T15:48:43;25.90;66.70
24374;DHT22;12498;50.880;12.096;2022-08-30T15:51:09;25.80;66.60
24374;DHT22;12498;50.880;12.096;2022-08-30T15:53:34;25.60;67.30
24374;DHT22;12498;50.880;12.096;2022-08-30T15:56:00;25.40;68.60
24374;DHT22;12498;50.880;12.096;2022-08-30T15:58:26;24.80;69.70
24374;DHT22;12498;50.880;12.096;2022-08-30T16:00:52;24.80;70.60
24374;DHT22;12498;50.880;12.096;2022-08-30T16:03:18;24.80;71.80
24374;DHT22;12498;50.880;12.096;2022-08-30T16:05:43;24.70;72.80
24374;DHT22;12498;50.880;12.096;2022-08-30T16:08:09;24.70;75.00
24374;DHT22;12498;50.880;12.096;2022-08-30T16:10:39;24.90;76.10
24374;DHT22;12498;50.880;12.096;2022-08-30T16:13:05;24.90;77.80
24374;DHT22;12498;50.880;12.096;2022-08-30T16:15:30;24.80;79.50
24374;DHT22;12498;50.880;12.096;2022-08-30T16:17:56;24.70;80.70
24374;DHT22;12498;50.880;12.096;2022-08-30T16:20:22;24.70;82.40
24374;DHT22;12498;50.880;12.096;2022-08-30T16:22:48;24.50;82.90
24374;DHT22;12498;50.880;12.096;2022-08-30T16:25:14;24.30;84.80
24374;DHT22;12498;50.880;12.096;2022-08-30T16:27:39;24.10;87.00
24374;DHT22;12498;50.880;12.096;2022-08-30T16:30:08;23.80;90.00
24374;DHT22;12498;50.880;12.096;2022-08-30T16:32:35;23.60;91.50
24374;DHT22;12498;50.880;12.096;2022-08-30T16:35:01;23.40;92.60
24374;DHT22;12498;50.880;12.096;2022-08-30T16:37:26;23.40;93.60
24374;DHT22;12498;50.880;12.096;2022-08-30T16:39:52;23.60;94.20
24374;DHT22;12498;50.880;12.096;2022-08-30T16:42:17;23.70;94.60
24374;DHT22;12498;50.880;12.096;2022-08-30T16:44:43;23.80;94.50
24374;DHT22;12498;50.880;12.096;2022-08-30T16:47:09;23.90;94.70
24374;DHT22;12498;50.880;12.096;2022-08-30T16:49:34;24.10;94.60
24374;DHT22;12498;50.880;12.096;2022-08-30T16:52:00;24.20;94.90
24374;DHT22;12498;50.880;12.096;2022-08-30T16:54:25;24.20;94.40
24374;DHT22;12498;50.880;12.096;2022-08-30T16:56:51;24.30;94.30
24374;DHT22;12498;50.880;12.096;2022-08-30T16:59:17;24.10;94.30
24374;DHT22;12498;50.880;12.096;2022-08-30T17:01:43;24.10;94.90
24374;DHT22;12498;50.880;12.096;2022-08-30T17:04:09;23.80;95.40